Drake, Missouri
Current Conditions -  °F | °C
As of 1:53 AM on Saturday 01 Nov 2014 (Local Time) from KVIH Reporting Station
Clear Clear  
Wind Chill: 21°   Ceiling: Unl
Heat Index: 28°   Visibility: 10mi
Dew Point: 20°   Wind: 7mph
Humidity: 72%   Direction: 20°NNE
Pressure: 30.39"   Gusts: NA
Location:  38.3708°N, 91.4729°W
Report Text: KVIH 010653Z AUTO 02006KT 10SM CLR M02/M07 A3039 RMK AO2 SLP301 T10221067
Loading
Personal Weather Stations






























Interactive Weather Map
Tropical Storm Tracking
New forecast layout! Learn more

10-Day Weather Forecast

Advertisements
Track Severe Weather on mobile